Time;durP1;ratioP1;P1;durP2;ratioP2;P2;SDS_P1;SDS_P2;PMS_P1;PMS_P2;Temp;Humidity;BMP_temperature;BMP_pressure;BME280_temperature;BME280_humidity;BME280_pressure;Samples;Min_cycle;Max_cycle;Signal;HPM_P1;HPM_P2
2023/11/28 00:02:22;;;;;;;6.70;3.20;;;;;;;10.88;100.00;97090.00;5033982;28;20041;-93
2023/11/28 00:04:50;;;;;;;8.00;3.45;;;;;;;10.83;100.00;97080.59;5038277;28;20045;-93
2023/11/28 00:07:21;;;;;;;6.43;3.30;;;;;;;9.89;100.00;96912.97;5035973;28;20045;-93
2023/11/28 00:09:51;;;;;;;5.82;3.35;;;;;;;10.72;100.00;97051.94;5034148;28;20045;-93
2023/11/28 00:12:24;;;;;;;7.22;4.05;;;;;;;9.82;100.00;96924.84;5034884;28;20555;-93
2023/11/28 00:14:56;;;;;;;9.15;4.20;;;;;;;10.46;100.00;97009.03;5035327;28;20052;-92
2023/11/28 00:17:27;;;;;;;5.80;3.63;;;;;;;10.82;100.00;97079.72;5066270;28;20391;-92
2023/11/28 00:19:54;;;;;;;8.38;3.50;;;;;;;10.88;100.00;97062.56;5034642;28;20037;-93
2023/11/28 00:22:22;;;;;;;6.60;3.08;;;;;;;9.96;100.00;96942.69;5032768;28;20040;-92
2023/11/28 00:24:50;;;;;;;7.50;2.60;;;;;;;10.08;100.00;96916.34;5034553;28;20105;-93
2023/11/28 00:27:22;;;;;;;5.38;2.90;;;;;;;9.97;100.00;96868.25;5039988;28;20041;-92
2023/11/28 00:29:48;;;;;;;6.43;2.40;;;;;;;9.92;100.00;96854.38;5032025;28;20048;-93
2023/11/28 00:32:18;;;;;;;5.53;2.55;;;;;;;10.15;100.00;96894.72;5032963;28;20041;-92
2023/11/28 00:34:47;;;;;;;5.70;2.58;;;;;;;10.91;100.00;97019.84;5034632;28;20037;-94
2023/11/28 00:37:13;;;;;;;7.97;3.22;;;;;;;10.11;100.00;96877.28;5036735;28;20044;-93
2023/11/28 00:39:39;;;;;;;5.63;2.97;;;;;;;10.38;100.00;96930.69;5037852;28;20570;-93
2023/11/28 00:42:09;;;;;;;7.20;2.88;;;;;;;10.18;100.00;96894.56;5034839;28;20480;-93
2023/11/28 00:44:38;;;;;;;4.35;2.65;;;;;;;10.48;100.00;96938.06;5032715;28;20042;-95
2023/11/28 00:47:05;;;;;;;5.18;2.60;;;;;;;10.87;100.00;96992.56;5032234;28;20428;-93
2023/11/28 00:49:43;;;;;;;8.23;4.43;;;;;;;10.27;100.00;96899.38;5034823;28;20053;-93
2023/11/28 00:52:10;;;;;;;5.70;2.50;;;;;;;10.44;100.00;96923.22;5033744;28;20053;-92
2023/11/28 00:54:38;;;;;;;6.25;2.50;;;;;;;9.95;100.00;96867.47;5034475;28;20134;-93
2023/11/28 00:57:07;;;;;;;3.70;2.35;;;;;;;10.66;100.00;96956.56;5034336;28;20038;-93
2023/11/28 00:59:41;;;;;;;5.18;2.28;;;;;;;10.48;100.00;96907.97;5036264;28;20034;-94
2023/11/28 01:02:10;;;;;;;4.68;2.20;;;;;;;11.04;100.00;97006.72;5032047;28;20040;-93
2023/11/28 01:04:41;;;;;;;4.40;2.08;;;;;;;9.97;100.00;96823.09;5035599;28;20046;-92
2023/11/28 01:07:10;;;;;;;5.82;2.10;;;;;;;10.26;100.00;96869.28;5033838;28;20064;-93
2023/11/28 01:09:36;;;;;;;4.72;2.13;;;;;;;10.06;100.00;96849.16;5032342;28;20045;-93
2023/11/28 01:12:02;;;;;;;4.15;2.30;;;;;;;10.11;100.00;96842.75;5034361;28;20096;-93
2023/11/28 01:14:31;;;;;;;5.10;2.95;;;;;;;10.11;100.00;96848.06;5033299;28;20042;-92
2023/11/28 01:16:59;;;;;;;5.40;2.70;;;;;;;11.00;100.00;96994.53;5031934;28;20048;-94
2023/11/28 01:19:27;;;;;;;6.72;3.70;;;;;;;10.57;100.00;96901.28;5033168;28;20049;-94
2023/11/28 01:22:00;;;;;;;6.47;3.65;;;;;;;10.31;100.00;96854.94;5033432;28;21064;-93
2023/11/28 01:24:29;;;;;;;4.93;2.92;;;;;;;10.30;100.00;96842.56;5033679;28;20087;-93
2023/11/28 01:27:01;;;;;;;7.40;3.17;;;;;;;10.70;100.00;96894.31;5033467;28;20033;-92
2023/11/28 01:29:29;;;;;;;7.65;3.28;;;;;;;11.08;100.00;96945.28;5033854;28;20080;-93
2023/11/28 01:31:58;;;;;;;5.53;2.63;;;;;;;10.51;100.00;96851.97;5032442;28;20041;-92
2023/11/28 01:34:27;;;;;;;5.05;2.47;;;;;;;10.27;100.00;96820.50;5039466;28;20442;-93
2023/11/28 01:36:57;;;;;;;4.53;2.42;;;;;;;10.37;100.00;96822.69;5033896;28;20049;-93
2023/11/28 01:39:23;;;;;;;5.35;2.70;;;;;;;11.20;100.00;96957.00;5037848;28;20096;-93
2023/11/28 01:41:56;;;;;;;6.00;2.78;;;;;;;10.52;100.00;96852.81;5067117;28;20518;-92
2023/11/28 01:44:26;;;;;;;7.03;3.42;;;;;;;11.06;100.00;96954.25;5031797;28;20460;-94
2023/11/28 01:46:56;;;;;;;5.57;2.72;;;;;;;11.01;100.00;96949.22;5032306;28;20037;-93
2023/11/28 01:49:23;;;;;;;7.05;2.70;;;;;;;10.28;100.00;96816.94;5033059;28;20053;-94
2023/11/28 01:51:49;;;;;;;4.40;3.10;;;;;;;9.97;100.00;96762.03;5033155;28;20415;-92
2023/11/28 01:57:16;;;;;;;17.38;3.22;;;;;;;11.03;100.00;96928.72;5018551;28;20047;-93
2023/11/28 01:59:48;;;;;;;13.45;3.95;;;;;;;10.23;100.00;96799.53;5030784;28;20091;-93
2023/11/28 02:02:25;;;;;;;11.88;3.88;;;;;;;11.00;100.00;96918.25;5032179;28;20112;-94
2023/11/28 02:04:54;;;;;;;27.75;4.50;;;;;;;10.15;100.00;96769.88;5033363;28;20508;-93
2023/11/28 02:07:20;;;;;;;29.20;4.20;;;;;;;10.92;100.00;96890.41;5033276;28;20081;-93
2023/11/28 02:09:49;;;;;;;8.55;3.67;;;;;;;11.00;100.00;96898.78;5033085;28;20018;-93
2023/11/28 02:12:15;;;;;;;27.17;4.43;;;;;;;11.08;100.00;96909.81;5033123;28;20069;-93
2023/11/28 02:14:47;;;;;;;15.93;3.65;;;;;;;10.58;100.00;96813.50;5033445;28;20400;-94
2023/11/28 02:17:16;;;;;;;37.72;3.72;;;;;;;10.68;100.00;96843.88;5032771;28;20042;-93
2023/11/28 02:19:42;;;;;;;27.85;4.70;;;;;;;10.65;100.00;96854.69;5031038;28;20044;-93
2023/11/28 02:22:08;;;;;;;10.57;3.28;;;;;;;10.98;100.00;96898.88;5033626;28;20128;-93
2023/11/28 02:24:40;;;;;;;24.15;3.20;;;;;;;10.25;100.00;96758.66;5033378;28;20045;-93
2023/11/28 02:27:09;;;;;;;10.88;3.03;;;;;;;10.05;100.00;96727.94;5033317;28;20075;-92
2023/11/28 02:29:37;;;;;;;12.57;3.25;;;;;;;10.77;100.00;96865.56;5033267;28;20499;-93
2023/11/28 02:32:04;;;;;;;5.00;2.28;;;;;;;10.03;100.00;96727.16;5066051;28;20045;-93
2023/11/28 02:34:30;;;;;;;3.30;1.88;;;;;;;10.75;100.00;96859.47;5035047;28;20038;-93
2023/11/28 02:36:56;;;;;;;5.32;2.22;;;;;;;10.73;100.00;96842.75;5066553;28;20041;-95
2023/11/28 02:39:22;;;;;;;4.72;2.05;;;;;;;10.69;100.00;96842.94;5032879;28;20049;-95
2023/11/28 02:41:50;;;;;;;3.78;2.00;;;;;;;10.13;100.00;96755.84;5033617;28;20034;-93
2023/11/28 02:44:17;;;;;;;4.13;2.17;;;;;;;10.87;100.00;96877.38;5033603;28;20064;-92
2023/11/28 02:46:46;;;;;;;4.68;2.35;;;;;;;10.87;100.00;96877.38;5033053;28;20069;-93
2023/11/28 02:49:14;;;;;;;4.60;2.53;;;;;;;10.40;100.00;96799.44;5033823;28;20041;-93
2023/11/28 02:51:49;;;;;;;3.85;2.30;;;;;;;9.91;100.00;96701.34;5033085;28;20124;-93
2023/11/28 02:54:15;;;;;;;4.10;2.50;;;;;;;10.37;100.00;96758.94;5033779;28;20073;-94
2023/11/28 02:56:41;;;;;;;7.22;2.75;;;;;;;10.21;100.00;96742.97;5033602;28;20084;-93
2023/11/28 02:59:07;;;;;;;4.85;2.50;;;;;;;10.45;100.00;96773.47;5033319;28;20041;-93
2023/11/28 03:01:34;;;;;;;6.00;3.17;;;;;;;10.53;100.00;96772.16;5032907;28;20061;-92
2023/11/28 03:04:00;;;;;;;10.95;4.72;;;;;;;10.37;100.00;96735.88;5044962;28;20072;-92
2023/11/28 03:06:28;;;;;;;8.57;4.03;;;;;;;10.69;100.00;96767.63;5028824;28;20061;-94
2023/11/28 03:08:54;;;;;;;6.25;3.30;;;;;;;9.93;100.00;96646.34;5032165;28;20132;-93
2023/11/28 03:11:23;;;;;;;7.97;3.80;;;;;;;11.00;100.00;96811.88;5033561;28;20038;-94
2023/11/28 03:13:49;;;;;;;24.20;4.07;;;;;;;9.97;100.00;96644.34;5033403;28;20037;-95
2023/11/28 03:16:15;;;;;;;62.22;5.40;;;;;;;10.05;100.00;96637.66;5032132;28;20464;-94
2023/11/28 03:18:42;;;;;;;9.20;3.42;;;;;;;10.54;100.00;96705.66;5033082;28;20041;-95
2023/11/28 03:21:09;;;;;;;18.83;4.25;;;;;;;10.80;100.00;96745.72;5033675;28;20095;-93
2023/11/28 03:23:35;;;;;;;7.05;3.50;;;;;;;10.80;100.00;96743.06;5032548;28;20088;-92
2023/11/28 03:26:01;;;;;;;8.13;3.72;;;;;;;10.38;100.00;96665.84;5032575;28;20042;-93
2023/11/28 03:28:26;;;;;;;21.48;4.45;;;;;;;10.47;100.00;96699.84;5033065;28;20048;-93
2023/11/28 03:30:54;;;;;;;6.75;3.28;;;;;;;10.15;100.00;96629.13;5032523;28;20038;-93
2023/11/28 03:33:20;;;;;;;6.57;3.10;;;;;;;9.99;100.00;96610.59;5033193;28;20033;-93
2023/11/28 03:35:51;;;;;;;10.23;3.70;;;;;;;10.09;100.00;96611.78;5032532;28;20519;-93
2023/11/28 03:38:17;;;;;;;8.10;4.30;;;;;;;10.80;100.00;96728.00;5034895;28;20045;-92
2023/11/28 03:40:43;;;;;;;7.20;3.47;;;;;;;10.73;100.00;96702.72;5070026;28;20057;-94
2023/11/28 03:43:12;;;;;;;6.05;3.17;;;;;;;10.53;100.00;96658.75;5036607;28;20034;-93
2023/11/28 03:45:38;;;;;;;9.07;4.15;;;;;;;11.15;100.00;96754.22;5035894;28;20044;-92
2023/11/28 03:48:04;;;;;;;7.88;3.90;;;;;;;10.98;100.00;96722.50;5036511;28;20044;-93
2023/11/28 03:50:31;;;;;;;27.70;4.55;;;;;;;10.44;100.00;96644.22;5034624;28;20088;-93
2023/11/28 03:52:59;;;;;;;12.43;3.92;;;;;;;10.43;100.00;96631.00;5036195;28;20033;-92
2023/11/28 03:55:27;;;;;;;15.45;4.28;;;;;;;10.68;100.00;96678.22;5035634;28;20368;-92
2023/11/28 03:57:56;;;;;;;46.05;5.80;;;;;;;10.01;100.00;96582.16;5035648;28;20083;-93
2023/11/28 04:00:22;;;;;;;40.20;5.70;;;;;;;10.18;100.00;96597.94;5034616;28;20489;-92
2023/11/28 04:02:48;;;;;;;126.47;6.75;;;;;;;10.10;100.00;96578.09;5036116;28;20048;-92
2023/11/28 04:05:18;;;;;;;85.47;5.28;;;;;;;10.06;100.00;96543.78;5035080;28;20096;-93
2023/11/28 04:07:55;;;;;;;58.85;4.47;;;;;;;10.46;100.00;96599.81;5033799;28;20037;-92
2023/11/28 04:10:30;;;;;;;18.08;4.35;;;;;;;10.99;100.00;96708.25;5033438;28;20030;-92
2023/11/28 04:13:02;;;;;;;40.15;4.05;;;;;;;10.66;100.00;96638.44;5068790;28;20041;-93
2023/11/28 04:15:31;;;;;;;53.45;4.40;;;;;;;9.94;100.00;96531.25;5034183;28;20037;-93
2023/11/28 04:17:57;;;;;;;61.10;4.47;;;;;;;10.12;100.00;96569.09;5034553;28;20052;-92
2023/11/28 04:20:23;;;;;;;46.63;3.90;;;;;;;9.86;100.00;96531.69;5035850;28;20038;-91
2023/11/28 04:22:52;;;;;;;48.88;3.92;;;;;;;9.83;100.00;96520.41;5035978;28;20049;-93
2023/11/28 04:25:18;;;;;;;27.70;3.90;;;;;;;10.54;100.00;96619.72;5041259;28;20045;-93
2023/11/28 04:27:48;;;;;;;14.90;3.38;;;;;;;10.35;100.00;96590.78;5035433;28;20132;-93
2023/11/28 04:30:16;;;;;;;46.67;4.75;;;;;;;10.06;100.00;96542.91;5034485;28;20446;-93
2023/11/28 04:32:48;;;;;;;25.70;3.35;;;;;;;10.02;100.00;96534.28;5035184;28;20050;-91
2023/11/28 04:35:14;;;;;;;45.65;4.90;;;;;;;10.36;100.00;96576.56;5035123;28;20037;-91
2023/11/28 04:37:40;;;;;;;60.38;5.72;;;;;;;10.86;100.00;96661.16;5032971;28;20046;-93
2023/11/28 04:40:07;;;;;;;20.10;3.80;;;;;;;10.41;100.00;96582.44;5035406;28;20050;-93
2023/11/28 04:42:35;;;;;;;100.43;6.15;;;;;;;10.26;100.00;96550.53;5034561;28;20406;-93
2023/11/28 04:45:07;;;;;;;123.70;6.60;;;;;;;10.44;100.00;96622.09;5034487;28;20033;-92
2023/11/28 04:47:38;;;;;;;59.95;4.57;;;;;;;10.71;100.00;96639.97;5034512;28;20060;-92
2023/11/28 04:50:12;;;;;;;122.63;7.25;;;;;;;10.53;100.00;96602.94;5034829;28;20041;-92
2023/11/28 04:52:41;;;;;;;46.78;4.55;;;;;;;10.21;100.00;96567.69;5034643;28;20037;-92
2023/11/28 04:55:07;;;;;;;38.72;3.47;;;;;;;9.58;100.00;96438.75;5032180;28;20041;-92
2023/11/28 04:57:34;;;;;;;38.60;3.95;;;;;;;9.82;100.00;96455.00;5066684;28;20491;-92
2023/11/28 05:00:00;;;;;;;32.65;3.35;;;;;;;10.32;100.00;96553.78;5034314;28;20387;-92
2023/11/28 05:02:30;;;;;;;12.48;1.90;;;;;;;9.86;100.00;96467.97;5033234;28;20119;-92
2023/11/28 05:04:59;;;;;;;34.70;2.58;;;;;;;9.83;100.00;96470.00;5033659;28;20045;-92
2023/11/28 05:07:28;;;;;;;4.43;1.90;;;;;;;10.66;100.00;96621.63;5034102;28;20077;-93
2023/11/28 05:09:54;;;;;;;4.03;2.28;;;;;;;10.55;100.00;96598.38;5032914;28;20045;-92
2023/11/28 05:12:23;;;;;;;3.88;1.80;;;;;;;10.21;100.00;96539.34;5033228;28;20512;-90
2023/11/28 05:14:51;;;;;;;4.53;2.28;;;;;;;9.76;100.00;96488.09;5033863;28;20079;-91
2023/11/28 05:17:18;;;;;;;4.05;1.30;;;;;;;9.83;100.00;96488.56;5031273;28;20060;-91
2023/11/28 05:19:45;;;;;;;2.58;1.30;;;;;;;10.19;100.00;96537.69;5033172;28;20116;-94
2023/11/28 05:22:12;;;;;;;4.20;0.88;;;;;;;9.85;100.00;96449.50;5033213;28;20119;-93
2023/11/28 05:24:41;;;;;;;2.65;1.17;;;;;;;9.89;100.00;96466.97;5033551;28;20373;-91
2023/11/28 05:27:07;;;;;;;2.22;1.00;;;;;;;10.58;100.00;96546.84;5035106;28;20041;-92
2023/11/28 05:29:38;;;;;;;1.95;1.10;;;;;;;11.10;100.00;96637.47;5034206;28;20064;-92
2023/11/28 05:32:04;;;;;;;2.70;1.10;;;;;;;10.25;100.00;96516.94;5031246;28;20042;-90
2023/11/28 05:34:30;;;;;;;3.03;1.20;;;;;;;10.19;100.00;96512.03;5040447;28;20041;-89
2023/11/28 05:37:05;;;;;;;2.47;1.20;;;;;;;10.88;100.00;96656.56;5031645;28;20047;-92
2023/11/28 05:39:31;;;;;;;2.90;1.17;;;;;;;10.76;100.00;96620.13;5031972;28;20053;-93
2023/11/28 05:42:03;;;;;;;4.03;0.80;;;;;;;10.42;100.00;96553.13;5032795;28;20045;-93
2023/11/28 05:44:32;;;;;;;6.95;1.23;;;;;;;11.11;100.00;96630.34;5032740;28;20045;-92
2023/11/28 05:47:06;;;;;;;4.18;1.15;;;;;;;10.96;100.00;96580.81;5029948;28;20045;-93
2023/11/28 05:49:34;;;;;;;3.83;0.93;;;;;;;10.54;100.00;96506.34;5032877;28;20045;-92
2023/11/28 05:52:01;;;;;;;1.67;0.98;;;;;;;10.76;100.00;96532.41;5031978;28;20056;-92
2023/11/28 05:54:31;;;;;;;4.30;1.40;;;;;;;10.18;100.00;96448.38;5033111;28;20038;-92
2023/11/28 05:57:02;;;;;;;2.78;1.27;;;;;;;10.14;100.00;96452.16;5066664;28;20037;-91
2023/11/28 05:59:28;;;;;;;4.22;1.08;;;;;;;10.37;100.00;96499.41;5032890;28;20399;-94
2023/11/28 06:02:00;;;;;;;5.60;1.83;;;;;;;10.28;100.00;96458.31;5035352;28;20449;-93
2023/11/28 06:04:26;;;;;;;5.35;0.90;;;;;;;10.47;100.00;96528.91;5035207;28;20038;-92
2023/11/28 06:06:54;;;;;;;3.53;1.08;;;;;;;10.41;100.00;96510.69;5067866;28;20045;-92
2023/11/28 06:09:22;;;;;;;3.63;1.20;;;;;;;10.01;100.00;96428.16;5035003;28;20153;-94
2023/11/28 06:11:50;;;;;;;3.08;1.50;;;;;;;10.98;100.00;96594.84;5033624;28;20033;-92
2023/11/28 06:14:16;;;;;;;3.05;1.33;;;;;;;10.35;100.00;96506.63;5033641;28;20049;-92
2023/11/28 06:16:42;;;;;;;5.38;2.45;;;;;;;10.18;100.00;96469.63;5032801;28;20042;-92
2023/11/28 06:19:10;;;;;;;6.95;2.33;;;;;;;10.74;100.00;96539.63;5032619;28;20033;-92
2023/11/28 06:21:38;;;;;;;7.43;2.30;;;;;;;10.73;100.00;96542.38;5032584;28;20041;-93
2023/11/28 06:24:05;;;;;;;6.60;1.95;;;;;;;10.87;100.00;96553.00;5032709;28;20041;-90
2023/11/28 06:26:35;;;;;;;3.80;2.00;;;;;;;10.38;100.00;96506.44;5032535;28;20041;-90
2023/11/28 06:29:03;;;;;;;4.75;2.25;;;;;;;10.48;100.00;96502.25;5031981;28;20045;-92
2023/11/28 06:31:44;;;;;;;6.90;2.78;;;;;;;10.33;100.00;96513.00;5030419;28;20442;-93
2023/11/28 06:34:12;;;;;;;7.00;2.42;;;;;;;11.01;100.00;96624.75;5031420;28;20394;-91
2023/11/28 06:36:41;;;;;;;3.22;1.08;;;;;;;10.32;100.00;96577.69;5032294;28;20049;-95
2023/11/28 06:39:09;;;;;;;2.83;0.70;;;;;;;9.82;100.00;96434.63;5033073;28;20046;-93
2023/11/28 06:41:36;;;;;;;1.60;0.68;;;;;;;9.84;100.00;96445.13;5033064;28;20115;-92
2023/11/28 06:44:07;;;;;;;1.35;0.50;;;;;;;9.62;100.00;96443.78;5034476;28;20042;-93
2023/11/28 06:46:35;;;;;;;1.75;0.60;;;;;;;9.92;100.00;96457.94;5030326;28;20526;-92
2023/11/28 06:49:05;;;;;;;1.67;0.70;;;;;;;9.83;100.00;96436.31;5031631;28;20060;-93
2023/11/28 06:51:32;;;;;;;2.28;0.75;;;;;;;10.85;100.00;96574.34;5032755;28;20095;-93
2023/11/28 06:54:02;;;;;;;1.40;0.65;;;;;;;10.46;100.00;96532.53;5032567;28;20052;-93
2023/11/28 06:56:28;;;;;;;4.03;0.98;;;;;;;10.33;100.00;96513.84;5032442;28;20038;-92
2023/11/28 06:58:56;;;;;;;3.70;1.02;;;;;;;10.42;100.00;96515.91;5029689;28;20041;-93
2023/11/28 07:01:25;;;;;;;1.30;0.60;;;;;;;10.83;100.00;96594.84;5032098;28;20189;-92
2023/11/28 07:03:54;;;;;;;1.83;0.57;;;;;;;10.79;100.00;96574.72;5032028;28;20039;-93
2023/11/28 07:06:30;;;;;;;1.67;0.70;;;;;;;10.04;100.00;96463.34;5032903;28;20037;-91
2023/11/28 07:09:00;;;;;;;1.77;0.57;;;;;;;11.10;100.00;96612.66;5032751;28;20056;-92
2023/11/28 07:11:34;;;;;;;2.38;0.80;;;;;;;10.11;100.00;96436.44;5032146;28;20040;-93
2023/11/28 07:14:16;;;;;;;0.98;0.52;;;;;;;10.89;100.00;96556.41;5033435;28;20087;-94
2023/11/28 07:16:44;;;;;;;4.10;1.00;;;;;;;10.35;100.00;96461.47;5032090;28;20565;-92
2023/11/28 07:19:19;;;;;;;4.53;1.60;;;;;;;10.18;100.00;96425.31;5035986;28;20037;-92
2023/11/28 07:21:57;;;;;;;3.92;1.30;;;;;;;10.63;100.00;96499.59;5069027;28;20042;-92
2023/11/28 07:24:35;;;;;;;8.90;3.58;;;;;;;10.62;100.00;96497.88;5035326;28;20048;-93
2023/11/28 07:27:05;;;;;;;8.88;2.60;;;;;;;10.65;100.00;96509.16;5036498;28;20506;-93
2023/11/28 07:29:39;;;;;;;3.22;1.70;;;;;;;10.31;100.00;96451.13;5070644;28;20068;-92
2023/11/28 07:32:16;;;;;;;9.13;2.55;;;;;;;10.40;100.00;96461.16;5034368;28;20034;-92
2023/11/28 07:34:45;;;;;;;7.03;2.20;;;;;;;10.23;100.00;96438.28;5035577;28;20041;-93
2023/11/28 07:37:10;;;;;;;4.75;1.98;;;;;;;11.06;100.00;96565.94;5035303;28;20140;-93
2023/11/28 07:39:45;;;;;;;4.70;1.50;;;;;;;10.58;100.00;96465.34;5068786;28;20057;-92
2023/11/28 07:42:14;;;;;;;2.40;1.17;;;;;;;11.17;100.00;96563.47;5034048;28;20110;-93
2023/11/28 07:44:46;;;;;;;5.55;2.10;;;;;;;10.62;100.00;96465.97;5033475;28;20050;-94
2023/11/28 07:47:19;;;;;;;3.17;1.70;;;;;;;11.28;100.00;96560.94;5032762;28;20034;-91
2023/11/28 07:49:52;;;;;;;3.65;1.98;;;;;;;11.14;100.00;96546.84;5033105;28;20045;-93
2023/11/28 07:52:25;;;;;;;4.60;2.10;;;;;;;10.54;100.00;96458.50;5035360;28;21319;-92
2023/11/28 07:54:57;;;;;;;4.20;2.35;;;;;;;10.51;100.00;96450.72;5035625;28;20064;-91
2023/11/28 07:57:26;;;;;;;4.18;1.90;;;;;;;11.27;100.00;96582.31;5043369;28;20037;-93
2023/11/28 07:59:56;;;;;;;5.97;2.10;;;;;;;11.01;100.00;96520.19;5033757;28;20057;-92
2023/11/28 08:02:24;;;;;;;4.90;1.55;;;;;;;10.58;100.00;96432.56;5032500;28;20037;-92
2023/11/28 08:04:55;;;;;;;4.10;1.65;;;;;;;10.73;100.00;96446.66;5035337;28;20138;-92
2023/11/28 08:07:20;;;;;;;4.90;1.83;;;;;;;11.07;100.00;96479.91;5034222;28;20514;-92
2023/11/28 08:09:52;;;;;;;5.45;2.63;;;;;;;11.54;100.00;96542.41;5035269;28;20180;-94
2023/11/28 08:12:18;;;;;;;4.05;2.42;;;;;;;11.45;100.00;96529.69;5035212;28;20395;-92
2023/11/28 08:14:44;;;;;;;4.72;2.35;;;;;;;11.30;100.00;96510.31;5034657;28;20079;-93
2023/11/28 08:17:13;;;;;;;5.20;2.72;;;;;;;11.04;100.00;96472.13;5032855;28;20065;-94
2023/11/28 08:19:40;;;;;;;5.03;2.00;;;;;;;11.18;100.00;96485.34;5034567;28;20049;-92
2023/11/28 08:22:06;;;;;;;5.15;1.52;;;;;;;10.97;100.00;96434.41;5034594;28;20037;-93
2023/11/28 08:24:32;;;;;;;4.40;2.17;;;;;;;11.80;100.00;96506.06;5067492;28;20033;-93
2023/11/28 08:26:58;;;;;;;3.67;1.90;;;;;;;12.22;100.00;96559.19;5033366;28;20038;-94
2023/11/28 08:29:24;;;;;;;2.58;1.10;;;;;;;12.43;100.00;96575.50;5034549;28;20583;-92
2023/11/28 08:31:51;;;;;;;5.03;1.52;;;;;;;12.53;100.00;96588.06;5032589;28;20487;-92
2023/11/28 08:34:19;;;;;;;3.42;1.10;;;;;;;12.52;100.00;96577.50;5034104;28;20041;-92
2023/11/28 08:36:50;;;;;;;3.83;1.80;;;;;;;11.74;100.00;96463.88;5031575;28;20046;-92
2023/11/28 08:39:18;;;;;;;6.25;1.95;;;;;;;11.72;100.00;96453.31;5032866;28;20479;-91
2023/11/28 08:41:49;;;;;;;5.93;1.95;;;;;;;11.25;100.00;96417.47;5040313;28;20033;-92
2023/11/28 08:44:22;;;;;;;5.53;1.85;;;;;;;12.26;100.00;96601.50;5066769;28;20042;-91
2023/11/28 08:46:48;;;;;;;5.72;2.08;;;;;;;12.04;100.00;96578.13;5030977;28;20075;-94
2023/11/28 08:49:18;;;;;;;6.45;2.08;;;;;;;11.88;100.00;96543.69;5033118;28;20125;-91
2023/11/28 08:51:46;;;;;;;7.60;2.30;;;;;;;12.23;100.00;96611.50;5031869;28;20443;-93
2023/11/28 08:54:14;;;;;;;6.80;2.47;;;;;;;11.84;100.00;96542.16;5031898;28;20171;-93
2023/11/28 08:56:40;;;;;;;5.93;2.22;;;;;;;12.04;100.00;96567.47;5034052;28;20153;-94
2023/11/28 08:59:06;;;;;;;5.03;1.95;;;;;;;12.25;100.00;96586.47;5064387;28;20034;-91
2023/11/28 09:01:32;;;;;;;5.28;2.03;;;;;;;12.35;100.00;96599.16;5031180;28;20068;-92
2023/11/28 09:04:00;;;;;;;4.05;1.98;;;;;;;12.03;100.00;96525.78;5039630;28;20179;-93
2023/11/28 09:06:26;;;;;;;2.72;1.27;;;;;;;12.24;100.00;96551.94;5032408;28;20045;-93
2023/11/28 09:08:53;;;;;;;7.00;2.53;;;;;;;12.83;100.00;96615.34;5031896;28;20042;-93
2023/11/28 09:11:22;;;;;;;10.57;3.40;;;;;;;12.77;100.00;96589.94;5033550;28;20033;-93
2023/11/28 09:13:48;;;;;;;5.32;2.75;;;;;;;12.91;100.00;96608.50;5032424;28;20091;-92
2023/11/28 09:16:14;;;;;;;6.07;2.58;;;;;;;12.63;100.00;96534.09;5035298;28;20049;-92
2023/11/28 09:18:40;;;;;;;6.72;2.40;;;;;;;13.10;100.00;96601.88;5033733;28;20128;-94
2023/11/28 09:21:21;;;;;;;6.88;2.80;;;;;;;12.45;100.00;96473.13;5034508;28;20129;-92
2023/11/28 09:24:14;;;;;;;12.10;3.75;;;;;;;13.22;100.00;96606.31;5032238;28;20124;-93
2023/11/28 09:26:40;;;;;;;13.35;3.95;;;;;;;12.38;100.00;96489.66;5033560;28;20065;-92
2023/11/28 09:29:09;;;;;;;13.70;4.70;;;;;;;12.65;100.00;96542.84;5033751;28;20068;-92
2023/11/28 09:31:36;;;;;;;10.13;3.85;;;;;;;12.66;100.00;96544.53;5032186;28;20041;-93
2023/11/28 09:34:02;;;;;;;11.73;3.65;;;;;;;12.60;100.00;96528.97;5031457;28;20065;-93
2023/11/28 09:36:30;;;;;;;9.05;2.10;;;;;;;12.59;100.00;96529.94;5033237;28;20045;-93
2023/11/28 09:39:05;;;;;;;10.10;2.78;;;;;;;13.31;100.00;96632.34;5032958;28;20037;-94
2023/11/28 09:41:38;;;;;;;7.40;2.05;;;;;;;13.13;100.00;96629.16;5033185;28;20037;-92
2023/11/28 09:44:08;;;;;;;9.50;1.70;;;;;;;12.33;100.00;96504.16;5039601;28;20025;-93
2023/11/28 09:46:36;;;;;;;6.03;2.88;;;;;;;12.33;100.00;96504.16;5033122;28;20057;-93
2023/11/28 09:49:11;;;;;;;7.18;1.90;;;;;;;12.38;100.00;96514.50;5033802;28;20395;-93
2023/11/28 09:51:40;;;;;;;5.38;1.20;;;;;;;13.35;100.00;96659.69;5033788;28;20034;-92
2023/11/28 09:54:10;;;;;;;10.40;1.23;;;;;;;13.24;100.00;96641.75;5033885;28;20045;-94
2023/11/28 09:56:41;;;;;;;7.97;1.20;;;;;;;12.47;100.00;96520.97;5032794;28;20041;-94
2023/11/28 09:59:17;;;;;;;5.13;1.15;;;;;;;12.80;100.00;96626.25;5033812;28;20037;-93
2023/11/28 10:01:45;;;;;;;4.50;0.90;;;;;;;12.73;100.00;96636.50;5034000;28;20491;-95
2023/11/28 10:04:13;;;;;;;6.75;1.27;;;;;;;12.78;100.00;96655.69;5030822;28;20038;-94
2023/11/28 10:06:44;;;;;;;8.80;1.00;;;;;;;11.95;100.00;96512.19;5059228;28;20052;-94
2023/11/28 10:09:16;;;;;;;3.90;1.35;;;;;;;12.07;100.00;96511.31;5050906;28;20136;-92
2023/11/28 10:11:53;;;;;;;9.13;1.85;;;;;;;12.65;100.00;96644.16;5031473;28;20368;-93
2023/11/28 10:14:22;;;;;;;6.38;1.08;;;;;;;12.80;100.00;96624.44;5031150;28;20041;-92
2023/11/28 10:16:54;;;;;;;6.55;1.38;;;;;;;13.07;100.00;96660.78;5034322;28;20411;-92
2023/11/28 10:19:23;;;;;;;9.38;1.30;;;;;;;12.64;100.00;96554.44;5034518;28;20131;-93
2023/11/28 10:21:52;;;;;;;5.15;1.00;;;;;;;12.69;100.00;96523.00;5031049;28;20034;-94
2023/11/28 10:24:22;;;;;;;6.13;1.48;;;;;;;13.03;100.00;96485.88;5034437;28;20487;-93
2023/11/28 10:26:58;;;;;;;7.53;1.42;;;;;;;14.35;100.00;96644.28;5034885;28;20041;-93
2023/11/28 10:29:30;;;;;;;5.20;1.25;;;;;;;13.88;100.00;96523.13;5034788;28;20052;-93
2023/11/28 10:32:15;;;;;;;3.65;0.93;;;;;;;14.64;100.00;96658.13;5034268;28;20038;-93
2023/11/28 10:34:57;;;;;;;7.53;2.03;;;;;;;13.93;100.00;96545.03;5034164;28;20553;-91
2023/11/28 10:37:26;;;;;;;7.18;1.35;;;;;;;14.41;100.00;96635.78;5034229;28;20048;-93
2023/11/28 10:39:53;;;;;;;10.00;1.55;;;;;;;13.66;100.00;96530.13;5034868;28;20053;-93
2023/11/28 10:42:23;;;;;;;9.40;1.50;;;;;;;13.42;100.00;96513.25;5034954;28;20046;-93
2023/11/28 10:45:06;;;;;;;;;;;;;;;14.42;100.00;96664.25;5038088;28;20056;-93
2023/11/28 10:47:33;;;;;;;12.25;1.95;;;;;;;12.93;100.00;96499.03;5041547;28;19921;-93
2023/11/28 10:50:06;;;;;;;5.82;1.20;;;;;;;13.23;100.00;96568.00;5041446;28;20047;-93
2023/11/28 10:52:46;;;;;;;4.88;1.10;;;;;;;12.53;100.00;96509.88;5041053;28;20124;-92
2023/11/28 10:55:18;;;;;;;5.22;1.13;;;;;;;13.59;100.00;96594.78;5021204;28;20045;-93
2023/11/28 10:58:08;;;;;;;5.85;1.23;;;;;;;13.67;100.00;96571.88;5022121;28;20402;-92
2023/11/28 11:00:44;;;;;;;6.78;2.28;;;;;;;13.54;100.00;96507.84;5022496;28;20048;-94
2023/11/28 11:03:19;;;;;;;11.60;1.92;;;;;;;13.38;100.00;96522.47;5030897;28;20094;-94
2023/11/28 11:05:55;;;;;;;6.70;1.58;;;;;;;13.71;100.00;96511.09;5058382;28;20053;-95
2023/11/28 11:08:22;;;;;;;7.13;1.40;;;;;;;13.68;100.00;96501.47;5042088;28;20037;-94
2023/11/28 11:11:07;;;;;;;7.63;1.25;;;;;;;14.07;100.00;96613.44;5041956;28;20051;-94
2023/11/28 11:13:53;;;;;;;7.30;1.52;;;;;;;14.35;100.00;96607.69;5041403;28;20406;-93
2023/11/28 11:16:30;;;;;;;10.93;1.67;;;;;;;14.17;100.00;96575.22;5041404;28;20079;-94
2023/11/28 11:18:57;;;;;;;8.27;1.65;;;;;;;13.85;100.00;96572.31;5040875;28;20144;-94
2023/11/28 11:21:31;;;;;;;6.78;1.20;;;;;;;14.12;100.00;96620.16;5040826;28;20071;-92
2023/11/28 11:23:57;;;;;;;7.68;1.38;;;;;;;14.17;100.00;96599.28;5040715;28;20053;-93
2023/11/28 11:26:45;;;;;;;7.88;1.45;;;;;;;14.10;100.00;96597.19;5040799;28;20048;-93
2023/11/28 11:29:38;;;;;;;5.10;0.93;;;;;;;14.16;100.00;96586.00;5040667;28;20045;-94
2023/11/28 11:32:13;;;;;;;4.65;1.27;;;;;;;14.50;100.00;96623.53;5057305;28;20041;-94
2023/11/28 11:34:48;;;;;;;7.10;2.22;;;;;;;14.63;100.00;96637.69;5054230;28;20410;-94
2023/11/28 11:37:30;;;;;;;5.85;1.27;;;;;;;14.40;100.00;96583.31;5021596;28;20046;-94
2023/11/28 11:40:07;;;;;;;8.68;1.60;;;;;;;14.17;100.00;96521.75;5033519;28;20489;-94